sensor_id;sensor_type;location;lat;lon;timestamp;P1;durP1;ratioP1;P2;durP2;ratioP2
61569;SDS011;47462;59.172;17.196;2022-10-16T09:29:08;6.30;;;2.47;;
61569;SDS011;47462;59.172;17.196;2022-10-16T09:31:39;6.93;;;2.20;;
61569;SDS011;47462;59.172;17.196;2022-10-16T09:34:15;4.53;;;2.45;;
61569;SDS011;47462;59.172;17.196;2022-10-16T09:36:53;8.43;;;2.75;;
61569;SDS011;47462;59.172;17.196;2022-10-16T09:39:22;5.38;;;2.55;;
61569;SDS011;47462;59.172;17.196;2022-10-16T09:41:50;2.85;;;2.15;;
61569;SDS011;47462;59.172;17.196;2022-10-16T09:47:04;5.63;;;2.50;;
61569;SDS011;47462;59.172;17.196;2022-10-16T09:49:38;9.52;;;2.88;;
61569;SDS011;47462;59.172;17.196;2022-10-16T09:52:05;5.88;;;2.30;;
61569;SDS011;47462;59.172;17.196;2022-10-16T09:54:48;6.97;;;2.42;;
61569;SDS011;47462;59.172;17.196;2022-10-16T09:57:15;8.80;;;2.20;;
61569;SDS011;47462;59.172;17.196;2022-10-16T09:59:50;6.68;;;2.40;;
61569;SDS011;47462;59.172;17.196;2022-10-16T10:02:36;10.80;;;2.67;;
61569;SDS011;47462;59.172;17.196;2022-10-16T10:05:17;5.03;;;2.10;;
61569;SDS011;47462;59.172;17.196;2022-10-16T10:07:52;8.43;;;2.25;;
61569;SDS011;47462;59.172;17.196;2022-10-16T10:10:26;5.82;;;2.47;;
61569;SDS011;47462;59.172;17.196;2022-10-16T10:12:54;15.52;;;2.92;;
61569;SDS011;47462;59.172;17.196;2022-10-16T10:15:24;6.22;;;2.58;;
61569;SDS011;47462;59.172;17.196;2022-10-16T10:17:54;5.90;;;2.40;;
61569;SDS011;47462;59.172;17.196;2022-10-16T10:20:32;6.78;;;2.17;;
61569;SDS011;47462;59.172;17.196;2022-10-16T10:23:00;5.78;;;2.13;;
61569;SDS011;47462;59.172;17.196;2022-10-16T10:25:53;9.63;;;2.67;;
61569;SDS011;47462;59.172;17.196;2022-10-16T10:31:29;7.40;;;2.13;;
61569;SDS011;47462;59.172;17.196;2022-10-16T10:36:43;7.85;;;2.47;;
61569;SDS011;47462;59.172;17.196;2022-10-16T10:39:27;6.32;;;2.45;;
61569;SDS011;47462;59.172;17.196;2022-10-16T10:42:02;8.55;;;2.25;;
61569;SDS011;47462;59.172;17.196;2022-10-16T10:50:12;7.63;;;2.00;;
61569;SDS011;47462;59.172;17.196;2022-10-16T11:02:15;5.68;;;2.30;;
61569;SDS011;47462;59.172;17.196;2022-10-16T11:05:08;7.13;;;2.03;;
61569;SDS011;47462;59.172;17.196;2022-10-16T11:08:00;8.80;;;2.30;;
61569;SDS011;47462;59.172;17.196;2022-10-16T11:13:42;9.10;;;1.83;;
61569;SDS011;47462;59.172;17.196;2022-10-16T11:16:28;4.90;;;1.98;;
61569;SDS011;47462;59.172;17.196;2022-10-16T11:27:17;5.68;;;1.63;;
61569;SDS011;47462;59.172;17.196;2022-10-16T11:29:57;7.32;;;1.90;;
61569;SDS011;47462;59.172;17.196;2022-10-16T11:32:28;6.53;;;1.80;;
61569;SDS011;47462;59.172;17.196;2022-10-16T11:35:15;3.13;;;1.90;;
61569;SDS011;47462;59.172;17.196;2022-10-16T11:37:47;3.33;;;1.83;;
61569;SDS011;47462;59.172;17.196;2022-10-16T11:40:31;6.43;;;1.48;;
61569;SDS011;47462;59.172;17.196;2022-10-16T11:45:55;3.33;;;1.73;;
61569;SDS011;47462;59.172;17.196;2022-10-16T11:48:30;2.95;;;1.42;;
61569;SDS011;47462;59.172;17.196;2022-10-16T11:51:21;4.57;;;1.45;;
61569;SDS011;47462;59.172;17.196;2022-10-16T11:56:32;7.05;;;1.77;;
61569;SDS011;47462;59.172;17.196;2022-10-16T11:59:06;3.95;;;1.95;;
61569;SDS011;47462;59.172;17.196;2022-10-16T12:01:50;4.15;;;1.85;;
61569;SDS011;47462;59.172;17.196;2022-10-16T12:07:12;3.03;;;1.85;;
61569;SDS011;47462;59.172;17.196;2022-10-16T12:09:42;5.40;;;1.77;;
61569;SDS011;47462;59.172;17.196;2022-10-16T12:15:19;5.60;;;1.40;;
61569;SDS011;47462;59.172;17.196;2022-10-16T12:17:57;6.03;;;1.45;;
61569;SDS011;47462;59.172;17.196;2022-10-16T12:22:59;6.47;;;1.80;;
61569;SDS011;47462;59.172;17.196;2022-10-16T12:25:53;5.95;;;1.90;;
61569;SDS011;47462;59.172;17.196;2022-10-16T12:28:30;6.88;;;1.40;;
61569;SDS011;47462;59.172;17.196;2022-10-16T12:31:07;4.55;;;1.42;;
61569;SDS011;47462;59.172;17.196;2022-10-16T12:33:41;6.03;;;1.70;;
61569;SDS011;47462;59.172;17.196;2022-10-16T12:36:28;3.90;;;1.25;;
61569;SDS011;47462;59.172;17.196;2022-10-16T12:38:57;3.45;;;1.65;;
61569;SDS011;47462;59.172;17.196;2022-10-16T12:41:28;3.78;;;1.85;;
61569;SDS011;47462;59.172;17.196;2022-10-16T12:43:54;8.20;;;1.73;;
61569;SDS011;47462;59.172;17.196;2022-10-16T12:49:47;3.38;;;1.50;;
61569;SDS011;47462;59.172;17.196;2022-10-16T12:51:46;8.65;;;1.63;;
61569;SDS011;47462;59.172;17.196;2022-10-16T12:54:17;4.80;;;0.98;;
61569;SDS011;47462;59.172;17.196;2022-10-16T12:56:57;5.13;;;1.40;;
61569;SDS011;47462;59.172;17.196;2022-10-16T13:13:15;1.27;;;0.73;;
61569;SDS011;47462;59.172;17.196;2022-10-16T13:21:51;2.25;;;0.50;;
61569;SDS011;47462;59.172;17.196;2022-10-16T13:24:46;3.25;;;0.55;;
61569;SDS011;47462;59.172;17.196;2022-10-16T13:27:18;1.50;;;0.60;;
61569;SDS011;47462;59.172;17.196;2022-10-16T13:30:14;4.50;;;0.60;;
61569;SDS011;47462;59.172;17.196;2022-10-16T13:32:50;1.92;;;0.40;;
61569;SDS011;47462;59.172;17.196;2022-10-16T13:35:35;5.85;;;0.47;;
61569;SDS011;47462;59.172;17.196;2022-10-16T13:38:05;2.33;;;0.77;;
61569;SDS011;47462;59.172;17.196;2022-10-16T13:43:15;2.45;;;0.50;;
61569;SDS011;47462;59.172;17.196;2022-10-16T13:46:02;1.23;;;0.70;;
61569;SDS011;47462;59.172;17.196;2022-10-16T13:48:31;11.65;;;1.40;;
61569;SDS011;47462;59.172;17.196;2022-10-16T13:50:59;7.60;;;0.90;;
61569;SDS011;47462;59.172;17.196;2022-10-16T13:53:43;5.68;;;1.00;;
61569;SDS011;47462;59.172;17.196;2022-10-16T13:56:16;3.83;;;0.73;;
61569;SDS011;47462;59.172;17.196;2022-10-16T13:58:45;5.55;;;0.73;;
61569;SDS011;47462;59.172;17.196;2022-10-16T14:01:16;8.50;;;1.25;;
61569;SDS011;47462;59.172;17.196;2022-10-16T14:03:48;8.52;;;1.15;;
61569;SDS011;47462;59.172;17.196;2022-10-16T14:06:19;8.80;;;1.23;;
61569;SDS011;47462;59.172;17.196;2022-10-16T14:08:50;5.93;;;1.10;;
61569;SDS011;47462;59.172;17.196;2022-10-16T14:11:22;6.80;;;1.30;;
61569;SDS011;47462;59.172;17.196;2022-10-16T14:13:51;3.80;;;0.95;;
61569;SDS011;47462;59.172;17.196;2022-10-16T14:16:22;9.30;;;1.88;;
61569;SDS011;47462;59.172;17.196;2022-10-16T14:19:02;6.03;;;1.10;;
61569;SDS011;47462;59.172;17.196;2022-10-16T14:21:35;2.72;;;1.10;;
61569;SDS011;47462;59.172;17.196;2022-10-16T14:24:21;6.63;;;1.38;;
61569;SDS011;47462;59.172;17.196;2022-10-16T14:26:58;7.30;;;1.38;;
61569;SDS011;47462;59.172;17.196;2022-10-16T14:29:29;6.45;;;1.50;;
61569;SDS011;47462;59.172;17.196;2022-10-16T14:32:00;6.93;;;1.50;;
61569;SDS011;47462;59.172;17.196;2022-10-16T14:34:32;3.15;;;1.55;;
61569;SDS011;47462;59.172;17.196;2022-10-16T14:37:09;6.32;;;0.98;;
61569;SDS011;47462;59.172;17.196;2022-10-16T14:39:51;4.57;;;1.20;;
61569;SDS011;47462;59.172;17.196;2022-10-16T14:42:21;1.23;;;0.30;;
61569;SDS011;47462;59.172;17.196;2022-10-16T14:44:49;9.73;;;1.15;;
61569;SDS011;47462;59.172;17.196;2022-10-16T14:47:18;4.38;;;0.60;;
61569;SDS011;47462;59.172;17.196;2022-10-16T14:49:52;1.13;;;0.50;;
61569;SDS011;47462;59.172;17.196;2022-10-16T14:52:27;3.13;;;0.40;;
61569;SDS011;47462;59.172;17.196;2022-10-16T14:54:53;15.77;;;1.73;;
61569;SDS011;47462;59.172;17.196;2022-10-16T14:57:24;5.53;;;0.98;;
61569;SDS011;47462;59.172;17.196;2022-10-16T14:59:52;2.35;;;0.50;;
61569;SDS011;47462;59.172;17.196;2022-10-16T15:04:53;4.07;;;0.65;;
61569;SDS011;47462;59.172;17.196;2022-10-16T15:07:20;4.88;;;0.50;;
61569;SDS011;47462;59.172;17.196;2022-10-16T15:09:47;1.75;;;0.40;;
61569;SDS011;47462;59.172;17.196;2022-10-16T15:12:13;1.08;;;0.30;;
61569;SDS011;47462;59.172;17.196;2022-10-16T15:14:40;7.95;;;1.13;;
61569;SDS011;47462;59.172;17.196;2022-10-16T15:17:08;5.10;;;1.02;;
61569;SDS011;47462;59.172;17.196;2022-10-16T15:19:38;6.07;;;1.55;;
61569;SDS011;47462;59.172;17.196;2022-10-16T15:22:04;4.13;;;0.90;;
61569;SDS011;47462;59.172;17.196;2022-10-16T15:24:29;5.40;;;1.23;;
61569;SDS011;47462;59.172;17.196;2022-10-16T15:26:55;4.15;;;1.20;;
61569;SDS011;47462;59.172;17.196;2022-10-16T15:29:20;5.10;;;1.47;;
61569;SDS011;47462;59.172;17.196;2022-10-16T15:31:45;8.77;;;0.90;;
61569;SDS011;47462;59.172;17.196;2022-10-16T15:34:12;2.00;;;0.70;;
61569;SDS011;47462;59.172;17.196;2022-10-16T15:36:38;3.97;;;1.23;;
61569;SDS011;47462;59.172;17.196;2022-10-16T15:39:05;1.45;;;0.57;;
61569;SDS011;47462;59.172;17.196;2022-10-16T15:41:37;4.35;;;0.90;;
61569;SDS011;47462;59.172;17.196;2022-10-16T15:44:02;5.53;;;0.63;;
61569;SDS011;47462;59.172;17.196;2022-10-16T15:46:28;2.38;;;0.70;;
61569;SDS011;47462;59.172;17.196;2022-10-16T15:48:56;7.82;;;1.27;;
61569;SDS011;47462;59.172;17.196;2022-10-16T15:51:23;3.33;;;0.73;;
61569;SDS011;47462;59.172;17.196;2022-10-16T15:53:52;8.63;;;1.25;;
61569;SDS011;47462;59.172;17.196;2022-10-16T15:56:22;8.30;;;1.52;;
61569;SDS011;47462;59.172;17.196;2022-10-16T15:58:56;4.00;;;0.73;;
61569;SDS011;47462;59.172;17.196;2022-10-16T16:01:23;2.90;;;0.45;;
61569;SDS011;47462;59.172;17.196;2022-10-16T16:03:51;4.53;;;0.75;;
61569;SDS011;47462;59.172;17.196;2022-10-16T16:06:18;1.45;;;0.68;;
61569;SDS011;47462;59.172;17.196;2022-10-16T16:08:45;1.65;;;0.50;;
61569;SDS011;47462;59.172;17.196;2022-10-16T16:11:11;1.85;;;0.43;;
61569;SDS011;47462;59.172;17.196;2022-10-16T16:13:38;6.82;;;0.80;;
61569;SDS011;47462;59.172;17.196;2022-10-16T16:16:09;3.90;;;0.70;;
61569;SDS011;47462;59.172;17.196;2022-10-16T16:18:36;1.23;;;0.50;;
61569;SDS011;47462;59.172;17.196;2022-10-16T16:23:31;1.20;;;0.70;;
61569;SDS011;47462;59.172;17.196;2022-10-16T16:26:14;6.47;;;3.65;;
61569;SDS011;47462;59.172;17.196;2022-10-16T16:28:46;6.53;;;1.00;;
61569;SDS011;47462;59.172;17.196;2022-10-16T16:31:11;2.92;;;0.65;;
61569;SDS011;47462;59.172;17.196;2022-10-16T16:33:36;6.43;;;1.02;;
61569;SDS011;47462;59.172;17.196;2022-10-16T16:36:04;4.20;;;0.63;;
61569;SDS011;47462;59.172;17.196;2022-10-16T16:38:31;3.83;;;1.27;;
61569;SDS011;47462;59.172;17.196;2022-10-16T16:43:24;4.18;;;0.50;;
61569;SDS011;47462;59.172;17.196;2022-10-16T16:45:51;10.93;;;5.20;;
61569;SDS011;47462;59.172;17.196;2022-10-16T16:48:16;12.48;;;6.38;;
61569;SDS011;47462;59.172;17.196;2022-10-16T16:50:42;6.97;;;2.80;;
61569;SDS011;47462;59.172;17.196;2022-10-16T16:53:07;3.65;;;1.92;;
61569;SDS011;47462;59.172;17.196;2022-10-16T16:55:33;7.50;;;1.27;;
61569;SDS011;47462;59.172;17.196;2022-10-16T16:57:58;4.05;;;2.13;;
61569;SDS011;47462;59.172;17.196;2022-10-16T17:02:50;3.13;;;1.40;;
61569;SDS011;47462;59.172;17.196;2022-10-16T17:05:16;7.22;;;0.95;;
61569;SDS011;47462;59.172;17.196;2022-10-16T17:07:42;1.85;;;0.43;;
61569;SDS011;47462;59.172;17.196;2022-10-16T17:10:08;4.75;;;0.68;;
61569;SDS011;47462;59.172;17.196;2022-10-16T17:12:37;2.20;;;0.30;;
61569;SDS011;47462;59.172;17.196;2022-10-16T17:15:03;5.65;;;0.63;;
61569;SDS011;47462;59.172;17.196;2022-10-16T17:19:54;2.28;;;0.85;;
61569;SDS011;47462;59.172;17.196;2022-10-16T17:22:20;4.37;;;0.93;;
61569;SDS011;47462;59.172;17.196;2022-10-16T17:24:48;3.65;;;0.50;;
61569;SDS011;47462;59.172;17.196;2022-10-16T17:27:19;2.45;;;0.50;;
61569;SDS011;47462;59.172;17.196;2022-10-16T17:29:44;3.22;;;0.50;;
61569;SDS011;47462;59.172;17.196;2022-10-16T17:32:09;2.80;;;0.50;;
61569;SDS011;47462;59.172;17.196;2022-10-16T17:34:35;5.72;;;0.52;;
61569;SDS011;47462;59.172;17.196;2022-10-16T17:39:27;1.23;;;0.40;;
61569;SDS011;47462;59.172;17.196;2022-10-16T17:41:53;3.65;;;0.60;;
61569;SDS011;47462;59.172;17.196;2022-10-16T17:44:18;9.82;;;0.95;;
61569;SDS011;47462;59.172;17.196;2022-10-16T17:46:48;8.10;;;0.70;;
61569;SDS011;47462;59.172;17.196;2022-10-16T17:49:15;5.05;;;0.90;;
61569;SDS011;47462;59.172;17.196;2022-10-16T17:51:40;5.78;;;0.90;;
61569;SDS011;47462;59.172;17.196;2022-10-16T17:54:06;3.92;;;0.50;;
61569;SDS011;47462;59.172;17.196;2022-10-16T17:56:31;1.92;;;0.60;;
61569;SDS011;47462;59.172;17.196;2022-10-16T17:58:58;10.68;;;0.98;;
61569;SDS011;47462;59.172;17.196;2022-10-16T18:01:35;7.80;;;0.88;;
61569;SDS011;47462;59.172;17.196;2022-10-16T18:04:05;6.10;;;1.10;;
61569;SDS011;47462;59.172;17.196;2022-10-16T18:06:37;4.40;;;0.70;;
61569;SDS011;47462;59.172;17.196;2022-10-16T18:09:04;1.75;;;0.50;;
61569;SDS011;47462;59.172;17.196;2022-10-16T18:11:30;3.22;;;0.50;;
61569;SDS011;47462;59.172;17.196;2022-10-16T18:13:56;4.60;;;1.03;;
61569;SDS011;47462;59.172;17.196;2022-10-16T18:16:23;4.38;;;1.13;;
61569;SDS011;47462;59.172;17.196;2022-10-16T18:18:50;7.70;;;0.63;;
61569;SDS011;47462;59.172;17.196;2022-10-16T18:21:16;4.88;;;1.35;;
61569;SDS011;47462;59.172;17.196;2022-10-16T18:23:43;6.93;;;0.68;;
61569;SDS011;47462;59.172;17.196;2022-10-16T18:28:36;5.22;;;0.82;;
61569;SDS011;47462;59.172;17.196;2022-10-16T18:31:10;8.77;;;1.02;;
61569;SDS011;47462;59.172;17.196;2022-10-16T18:33:38;7.53;;;1.33;;
61569;SDS011;47462;59.172;17.196;2022-10-16T18:38:31;11.40;;;1.25;;
61569;SDS011;47462;59.172;17.196;2022-10-16T18:40:58;13.05;;;2.65;;
61569;SDS011;47462;59.172;17.196;2022-10-16T18:43:26;8.20;;;1.73;;
61569;SDS011;47462;59.172;17.196;2022-10-16T18:46:00;3.70;;;1.13;;
61569;SDS011;47462;59.172;17.196;2022-10-16T18:48:28;7.47;;;1.30;;
61569;SDS011;47462;59.172;17.196;2022-10-16T18:51:04;5.57;;;1.50;;
61569;SDS011;47462;59.172;17.196;2022-10-16T18:53:39;9.82;;;1.20;;
61569;SDS011;47462;59.172;17.196;2022-10-16T18:56:06;12.50;;;1.50;;
61569;SDS011;47462;59.172;17.196;2022-10-16T18:58:33;8.63;;;0.93;;
61569;SDS011;47462;59.172;17.196;2022-10-16T19:01:03;10.52;;;1.92;;
61569;SDS011;47462;59.172;17.196;2022-10-16T19:03:30;15.45;;;2.10;;
61569;SDS011;47462;59.172;17.196;2022-10-16T19:06:07;10.05;;;1.42;;
61569;SDS011;47462;59.172;17.196;2022-10-16T19:08:35;16.40;;;1.92;;
61569;SDS011;47462;59.172;17.196;2022-10-16T19:11:10;11.88;;;1.63;;
61569;SDS011;47462;59.172;17.196;2022-10-16T19:13:37;14.25;;;2.72;;
61569;SDS011;47462;59.172;17.196;2022-10-16T19:16:03;9.17;;;2.37;;
61569;SDS011;47462;59.172;17.196;2022-10-16T19:18:34;11.77;;;2.17;;
61569;SDS011;47462;59.172;17.196;2022-10-16T19:21:06;13.25;;;2.22;;
61569;SDS011;47462;59.172;17.196;2022-10-16T19:23:33;9.35;;;1.80;;
61569;SDS011;47462;59.172;17.196;2022-10-16T19:26:02;9.30;;;2.65;;
61569;SDS011;47462;59.172;17.196;2022-10-16T19:28:29;10.25;;;2.20;;
61569;SDS011;47462;59.172;17.196;2022-10-16T19:30:54;14.70;;;1.87;;
61569;SDS011;47462;59.172;17.196;2022-10-16T19:33:20;22.77;;;1.88;;
61569;SDS011;47462;59.172;17.196;2022-10-16T19:35:45;19.75;;;1.58;;
61569;SDS011;47462;59.172;17.196;2022-10-16T19:38:11;19.57;;;2.33;;
61569;SDS011;47462;59.172;17.196;2022-10-16T19:40:37;14.93;;;1.90;;
61569;SDS011;47462;59.172;17.196;2022-10-16T19:43:02;18.50;;;2.30;;
61569;SDS011;47462;59.172;17.196;2022-10-16T19:45:27;10.70;;;2.13;;
61569;SDS011;47462;59.172;17.196;2022-10-16T19:47:53;14.68;;;1.80;;
61569;SDS011;47462;59.172;17.196;2022-10-16T19:50:18;14.75;;;2.08;;
61569;SDS011;47462;59.172;17.196;2022-10-16T19:52:44;12.32;;;1.75;;
61569;SDS011;47462;59.172;17.196;2022-10-16T19:55:10;14.48;;;2.05;;
61569;SDS011;47462;59.172;17.196;2022-10-16T19:57:36;12.00;;;1.77;;
61569;SDS011;47462;59.172;17.196;2022-10-16T20:02:32;10.15;;;1.70;;
61569;SDS011;47462;59.172;17.196;2022-10-16T20:04:57;17.45;;;2.00;;
61569;SDS011;47462;59.172;17.196;2022-10-16T20:07:23;11.67;;;2.53;;
61569;SDS011;47462;59.172;17.196;2022-10-16T20:09:48;12.63;;;2.40;;
61569;SDS011;47462;59.172;17.196;2022-10-16T20:12:14;12.18;;;1.58;;
61569;SDS011;47462;59.172;17.196;2022-10-16T20:14:39;10.80;;;2.00;;
61569;SDS011;47462;59.172;17.196;2022-10-16T20:17:04;9.57;;;1.35;;
61569;SDS011;47462;59.172;17.196;2022-10-16T20:19:30;18.00;;;2.38;;
61569;SDS011;47462;59.172;17.196;2022-10-16T20:21:55;13.48;;;1.58;;
61569;SDS011;47462;59.172;17.196;2022-10-16T20:24:21;12.60;;;1.70;;
61569;SDS011;47462;59.172;17.196;2022-10-16T20:26:47;16.90;;;2.47;;
61569;SDS011;47462;59.172;17.196;2022-10-16T20:29:12;5.73;;;1.20;;
61569;SDS011;47462;59.172;17.196;2022-10-16T20:31:37;7.70;;;1.20;;
61569;SDS011;47462;59.172;17.196;2022-10-16T20:34:08;9.00;;;2.13;;
61569;SDS011;47462;59.172;17.196;2022-10-16T20:36:36;7.18;;;1.45;;
61569;SDS011;47462;59.172;17.196;2022-10-16T20:39:04;7.82;;;1.00;;
61569;SDS011;47462;59.172;17.196;2022-10-16T20:41:30;6.32;;;1.27;;
61569;SDS011;47462;59.172;17.196;2022-10-16T20:43:56;5.82;;;1.50;;
61569;SDS011;47462;59.172;17.196;2022-10-16T20:46:22;11.55;;;1.80;;
61569;SDS011;47462;59.172;17.196;2022-10-16T20:48:49;7.25;;;1.45;;
61569;SDS011;47462;59.172;17.196;2022-10-16T20:51:19;6.63;;;1.35;;
61569;SDS011;47462;59.172;17.196;2022-10-16T20:53:54;8.70;;;1.02;;
61569;SDS011;47462;59.172;17.196;2022-10-16T20:56:24;8.98;;;1.40;;
61569;SDS011;47462;59.172;17.196;2022-10-16T20:58:51;10.57;;;1.10;;
61569;SDS011;47462;59.172;17.196;2022-10-16T21:01:18;10.70;;;1.10;;
61569;SDS011;47462;59.172;17.196;2022-10-16T21:03:49;12.23;;;1.42;;
61569;SDS011;47462;59.172;17.196;2022-10-16T21:06:16;5.22;;;1.05;;
61569;SDS011;47462;59.172;17.196;2022-10-16T21:08:42;8.10;;;1.20;;
61569;SDS011;47462;59.172;17.196;2022-10-16T21:11:18;5.13;;;1.33;;
61569;SDS011;47462;59.172;17.196;2022-10-16T21:13:51;6.57;;;0.88;;
61569;SDS011;47462;59.172;17.196;2022-10-16T21:16:19;8.20;;;1.10;;
61569;SDS011;47462;59.172;17.196;2022-10-16T21:21:17;4.25;;;0.73;;
61569;SDS011;47462;59.172;17.196;2022-10-16T21:23:53;8.80;;;0.82;;
61569;SDS011;47462;59.172;17.196;2022-10-16T21:26:21;5.32;;;0.80;;
61569;SDS011;47462;59.172;17.196;2022-10-16T21:28:50;7.57;;;0.60;;
61569;SDS011;47462;59.172;17.196;2022-10-16T21:31:17;4.35;;;1.13;;
61569;SDS011;47462;59.172;17.196;2022-10-16T21:33:44;9.57;;;1.08;;
61569;SDS011;47462;59.172;17.196;2022-10-16T21:36:11;6.43;;;0.75;;
61569;SDS011;47462;59.172;17.196;2022-10-16T21:38:44;9.07;;;1.05;;
61569;SDS011;47462;59.172;17.196;2022-10-16T21:41:21;4.97;;;0.70;;
61569;SDS011;47462;59.172;17.196;2022-10-16T21:43:48;3.17;;;0.50;;
61569;SDS011;47462;59.172;17.196;2022-10-16T21:46:14;7.05;;;1.25;;
61569;SDS011;47462;59.172;17.196;2022-10-16T21:48:41;7.82;;;1.75;;
61569;SDS011;47462;59.172;17.196;2022-10-16T21:51:07;4.25;;;0.60;;
61569;SDS011;47462;59.172;17.196;2022-10-16T21:53:33;6.10;;;0.68;;
61569;SDS011;47462;59.172;17.196;2022-10-16T21:55:59;5.55;;;0.80;;
61569;SDS011;47462;59.172;17.196;2022-10-16T21:58:24;9.77;;;1.33;;
61569;SDS011;47462;59.172;17.196;2022-10-16T22:00:50;6.20;;;0.70;;
61569;SDS011;47462;59.172;17.196;2022-10-16T22:03:15;5.50;;;0.77;;
61569;SDS011;47462;59.172;17.196;2022-10-16T22:05:40;5.93;;;0.70;;
61569;SDS011;47462;59.172;17.196;2022-10-16T22:08:06;2.93;;;0.60;;
61569;SDS011;47462;59.172;17.196;2022-10-16T22:10:32;8.15;;;1.15;;
61569;SDS011;47462;59.172;17.196;2022-10-16T22:12:57;4.97;;;0.70;;
61569;SDS011;47462;59.172;17.196;2022-10-16T22:15:22;10.43;;;1.10;;
61569;SDS011;47462;59.172;17.196;2022-10-16T22:17:48;5.03;;;0.63;;
61569;SDS011;47462;59.172;17.196;2022-10-16T22:20:13;8.77;;;1.40;;
61569;SDS011;47462;59.172;17.196;2022-10-16T22:22:39;5.63;;;0.90;;
61569;SDS011;47462;59.172;17.196;2022-10-16T22:25:04;9.65;;;1.23;;
61569;SDS011;47462;59.172;17.196;2022-10-16T22:27:30;5.57;;;1.48;;
61569;SDS011;47462;59.172;17.196;2022-10-16T22:29:56;6.13;;;0.87;;
61569;SDS011;47462;59.172;17.196;2022-10-16T22:32:21;4.50;;;0.97;;
61569;SDS011;47462;59.172;17.196;2022-10-16T22:34:47;4.82;;;1.25;;
61569;SDS011;47462;59.172;17.196;2022-10-16T22:37:12;10.95;;;1.52;;
61569;SDS011;47462;59.172;17.196;2022-10-16T22:39:37;10.70;;;2.15;;
61569;SDS011;47462;59.172;17.196;2022-10-16T22:42:03;8.60;;;1.30;;
61569;SDS011;47462;59.172;17.196;2022-10-16T22:44:29;5.35;;;0.82;;
61569;SDS011;47462;59.172;17.196;2022-10-16T22:46:55;5.68;;;1.05;;
61569;SDS011;47462;59.172;17.196;2022-10-16T22:49:21;6.82;;;0.98;;
61569;SDS011;47462;59.172;17.196;2022-10-16T22:51:47;11.98;;;1.80;;
61569;SDS011;47462;59.172;17.196;2022-10-16T22:54:12;9.38;;;1.45;;
61569;SDS011;47462;59.172;17.196;2022-10-16T22:56:38;9.80;;;2.00;;
61569;SDS011;47462;59.172;17.196;2022-10-16T22:59:04;5.93;;;1.25;;
61569;SDS011;47462;59.172;17.196;2022-10-16T23:01:40;5.55;;;0.73;;
61569;SDS011;47462;59.172;17.196;2022-10-16T23:04:06;6.93;;;1.35;;
61569;SDS011;47462;59.172;17.196;2022-10-16T23:06:32;7.38;;;1.10;;
61569;SDS011;47462;59.172;17.196;2022-10-16T23:11:24;8.05;;;1.13;;
61569;SDS011;47462;59.172;17.196;2022-10-16T23:13:51;7.78;;;1.23;;
61569;SDS011;47462;59.172;17.196;2022-10-16T23:16:18;2.90;;;0.60;;
61569;SDS011;47462;59.172;17.196;2022-10-16T23:18:44;6.30;;;1.15;;
61569;SDS011;47462;59.172;17.196;2022-10-16T23:21:11;7.43;;;1.02;;
61569;SDS011;47462;59.172;17.196;2022-10-16T23:23:39;4.00;;;1.00;;
61569;SDS011;47462;59.172;17.196;2022-10-16T23:26:11;7.15;;;1.27;;
61569;SDS011;47462;59.172;17.196;2022-10-16T23:28:39;5.97;;;0.68;;
61569;SDS011;47462;59.172;17.196;2022-10-16T23:31:05;9.60;;;1.30;;
61569;SDS011;47462;59.172;17.196;2022-10-16T23:35:57;8.77;;;0.88;;
61569;SDS011;47462;59.172;17.196;2022-10-16T23:38:22;10.60;;;1.67;;
61569;SDS011;47462;59.172;17.196;2022-10-16T23:40:47;8.50;;;1.10;;
61569;SDS011;47462;59.172;17.196;2022-10-16T23:43:13;8.20;;;1.27;;
61569;SDS011;47462;59.172;17.196;2022-10-16T23:45:38;12.07;;;1.88;;
61569;SDS011;47462;59.172;17.196;2022-10-16T23:48:04;7.00;;;0.97;;
61569;SDS011;47462;59.172;17.196;2022-10-16T23:50:29;23.33;;;2.17;;
61569;SDS011;47462;59.172;17.196;2022-10-16T23:52:55;5.37;;;0.90;;
61569;SDS011;47462;59.172;17.196;2022-10-16T23:55:20;9.65;;;1.27;;
61569;SDS011;47462;59.172;17.196;2022-10-16T23:57:45;12.57;;;1.67;;
